Líbí se Vám tento web? Budeme velmi rádi, pokud přidáte hodnocení +1

Seznam meteostanic a jejich METAR

Vyhledat místa podle abecedy:
A B C D E F G H I J K L M N O P Q R S T U V W X Y Z

Filtrovat:

ID stanice:
a/nebo
Název místa (fulltext):
 
Místo (ID)Naposledy načteno 
Verona (LIPX) 20.01.2018 02:50 UTC Zobrazit METAR
LIPX 200250Z 20006KT CAVOK M00/M03 Q1012
Vienna (LOWW) 20.01.2018 02:50 UTC Zobrazit METAR
LOWW 200250Z 17006KT 9999 SCT043 M02/M04 Q1012 NOSIG
Vientiane (VLVT) 20.01.2018 03:00 UTC Zobrazit METAR
VLVT 200300Z 32004KT 7000 FEW200 25/18 Q1015 NOSIG
Vieuxfort (TLPL) 20.01.2018 03:00 UTC Zobrazit METAR
TLPL 200300Z 07011KT 9999 FEW023 SCT042 26/23 Q1016 NOSIG
Vilnius (EYVI) 20.01.2018 02:50 UTC Zobrazit METAR
EYVI 200250Z 33004KT 6000 -SN OVC004 M03/M03 Q1004 R01/6/0294 NOSIG
Vitebsk (UMII) Zatím nenačteno  
Volgograd (URWW) Zatím nenačteno  
Voronezh (UUOO) Zatím nenačteno  
Wake Island (PWAK) 20.01.2018 02:58 UTC Zobrazit METAR
PWAK 200258Z AUTO 04013KT 9999 SCT021 BKN030 28/24 A2984 RMK AO2 SLP111 57021
Warsaw (EPWA) 20.01.2018 03:00 UTC Zobrazit METAR
EPWA 200300Z 27004KT 250V310 9999 FEW009 SCT020 00/M01 Q1009 R33/2///95 NOSIG
Washington (KIAD) 20.01.2018 02:52 UTC Zobrazit METAR
KIAD 200252Z 00000KT 10SM CLR M02/M09 A3004 RMK AO2 SLP173 T10171094 50001
Wellington (NZWN) 20.01.2018 01:00 UTC Zobrazit METAR
NZWN 200100Z AUTO 02020G30KT 9999 SCT035/// 24/17 Q1015 NOSIG
Windhoek (FYWH) 19.01.2018 11:00 UTC Zobrazit METAR
FYWH 191100Z 10005KT 9999 SCT045 30/06 Q1020 BECMG SCT040TCU
Wroclaw (EPWR) 20.01.2018 03:00 UTC Zobrazit METAR
EPWR 200300Z 24006KT 9999 -SN FEW023 BKN040 01/M02 Q1010
Yamoussoukro (DIYO) 20.01.2018 00:00 UTC Zobrazit METAR
DIYO 200000Z 22004KT 6000 NSC 26/23 Q1012 NOSIG
Yangon (VYYY) 20.01.2018 03:00 UTC Zobrazit METAR
VYYY 200300Z 01006KT 8000 NSC 25/21 Q1013
Yaounde (FKYS) 20.01.2018 02:00 UTC Zobrazit METAR
FKYS 200200Z 27002KT 6000 BKN006 22/21 Q1015 BECMG 4000 BR
Yerevan (UGEE) Zatím nenačteno  
Zadar (LDZD) 20.01.2018 03:00 UTC Zobrazit METAR
LDZD 200300Z 10006KT 050V150 9999 FEW045 06/M01 Q1011 NOSIG
Zagreb (LDZA) 20.01.2018 01:00 UTC Zobrazit METAR
LDZA 200100Z 22003KT 9999 FEW045 00/M01 Q1015 NOSIG
Zaragoza (LEZG) 20.01.2018 03:00 UTC Zobrazit METAR
LEZG 200300Z 29009KT 9999 SCT045 08/05 Q1024
Zhezkazgan (UAKD) Zatím nenačteno  
Zurich (LSZH) 20.01.2018 02:50 UTC Zobrazit METAR
LSZH 200250Z 21006KT 9999 SCT055 BKN120 02/M02 Q1015 NOSIG
Předchozí 1 ... 7 8 9
Reklama

Počasí na Váš email

Emaily jsou bez reklamy a bez spamu



Odhlásit newsletter

Reklama


Lunární kalendář

  • 24.01.
  • 31.01.
  • 07.02.
  • 15.02.



Jsme na Google Plus

Reklama
Povinné ručení



Může Vás také zajímat:


Reklama